Time;durP1;ratioP1;P1;durP2;ratioP2;P2;SDS_P1;SDS_P2;PMS_P1;PMS_P2;Temp;Humidity;BMP_temperature;BMP_pressure;BME280_temperature;BME280_humidity;BME280_pressure;Samples;Min_cycle;Max_cycle;Signal;HPM_P1;HPM_P2
2024/03/05 00:01:49;;;;;;;0.88;0.57;;;16.20;99.90;;;;;;5028345;28;20040;-77
2024/03/05 00:04:15;;;;;;;1.08;0.77;;;16.20;99.90;;;;;;5029504;28;20037;-75
2024/03/05 00:06:41;;;;;;;1.15;0.63;;;16.20;99.90;;;;;;5029631;28;20036;-76
2024/03/05 00:09:07;;;;;;;0.80;0.70;;;16.20;99.90;;;;;;5028789;28;20038;-76
2024/03/05 00:11:32;;;;;;;1.33;0.93;;;16.20;99.90;;;;;;5029737;28;20474;-75
2024/03/05 00:13:58;;;;;;;0.63;0.60;;;16.20;99.90;;;;;;5029177;28;20030;-75
2024/03/05 00:16:24;;;;;;;0.90;0.90;;;16.10;99.90;;;;;;5027673;28;20267;-75
2024/03/05 00:18:50;;;;;;;1.50;0.77;;;16.10;99.90;;;;;;5029294;28;20330;-76
2024/03/05 00:21:16;;;;;;;1.03;0.80;;;16.10;99.90;;;;;;5029631;28;20033;-76
2024/03/05 00:23:41;;;;;;;1.30;0.70;;;16.10;99.90;;;;;;5029471;28;20053;-75
2024/03/05 00:26:08;;;;;;;0.80;0.77;;;16.10;99.90;;;;;;5029192;28;20439;-75
2024/03/05 00:28:34;;;;;;;0.75;0.68;;;16.10;99.90;;;;;;5058681;28;20477;-75
2024/03/05 00:31:00;;;;;;;1.73;0.80;;;16.10;99.90;;;;;;5027150;28;20123;-74
2024/03/05 00:33:26;;;;;;;1.93;1.00;;;16.00;99.90;;;;;;5027342;28;20180;-75
2024/03/05 00:35:51;;;;;;;1.27;0.80;;;16.10;99.90;;;;;;5053714;28;20267;-75
2024/03/05 00:38:17;;;;;;;1.97;1.20;;;16.00;99.90;;;;;;5028542;28;20033;-75
2024/03/05 00:40:44;;;;;;;0.80;0.60;;;16.00;99.90;;;;;;5027427;28;20037;-76
2024/03/05 00:43:10;;;;;;;3.38;0.90;;;16.00;99.90;;;;;;5027440;28;20052;-77
2024/03/05 00:45:36;;;;;;;3.07;1.10;;;16.00;99.90;;;;;;5057696;28;20037;-76
2024/03/05 00:48:03;;;;;;;1.07;0.97;;;16.00;99.90;;;;;;5059514;28;20137;-76
2024/03/05 00:50:28;;;;;;;1.10;0.95;;;16.00;99.90;;;;;;5032303;28;20449;-77
2024/03/05 00:52:54;;;;;;;0.60;0.60;;;16.00;99.90;;;;;;5028033;28;20053;-75
2024/03/05 00:55:20;;;;;;;0.87;0.63;;;16.00;99.90;;;;;;5031432;28;20033;-75
2024/03/05 00:57:46;;;;;;;1.15;1.00;;;15.90;99.90;;;;;;5031610;28;20071;-76
2024/03/05 01:00:13;;;;;;;2.20;1.00;;;15.90;99.90;;;;;;5031843;28;20060;-76
2024/03/05 01:02:41;;;;;;;0.82;0.70;;;15.90;99.90;;;;;;5032752;28;20056;-75
2024/03/05 01:05:09;;;;;;;1.05;0.95;;;15.90;99.90;;;;;;5032125;28;20030;-75
2024/03/05 01:07:36;;;;;;;0.90;0.80;;;15.90;99.90;;;;;;5031572;28;20034;-75
2024/03/05 01:10:04;;;;;;;1.17;0.82;;;15.90;99.90;;;;;;5064026;28;20044;-76
2024/03/05 01:12:30;;;;;;;0.80;0.80;;;15.90;99.90;;;;;;5030427;28;20030;-75
2024/03/05 01:14:56;;;;;;;3.53;0.85;;;15.80;99.90;;;;;;5023966;28;20045;-75
2024/03/05 01:17:22;;;;;;;1.07;0.87;;;15.80;99.90;;;;;;5029488;28;20107;-77
2024/03/05 01:19:47;;;;;;;2.00;0.87;;;15.80;99.90;;;;;;5030619;28;20087;-75
2024/03/05 01:22:13;;;;;;;1.43;0.70;;;15.80;99.90;;;;;;5031095;28;20060;-74
2024/03/05 01:24:39;;;;;;;1.27;0.80;;;15.80;99.90;;;;;;5062722;28;20037;-77
2024/03/05 01:27:05;;;;;;;0.83;0.80;;;15.70;99.90;;;;;;5030445;28;20028;-77
2024/03/05 01:29:32;;;;;;;1.00;0.70;;;15.80;99.90;;;;;;5030671;28;20148;-75
2024/03/05 01:31:59;;;;;;;1.58;0.90;;;15.70;99.90;;;;;;5030777;28;20032;-77
2024/03/05 01:34:25;;;;;;;1.30;1.13;;;15.70;99.90;;;;;;5030183;28;20032;-75
2024/03/05 01:37:01;;;;;;;1.65;1.00;;;15.70;99.90;;;;;;5030037;28;20033;-75
2024/03/05 01:39:27;;;;;;;0.82;0.70;;;15.70;99.90;;;;;;5031670;28;20125;-75
2024/03/05 01:41:54;;;;;;;1.20;0.80;;;15.70;99.90;;;;;;5030037;28;20462;-76
2024/03/05 01:44:20;;;;;;;1.17;0.85;;;15.70;99.90;;;;;;5032384;28;20064;-75
2024/03/05 01:46:52;;;;;;;1.40;1.15;;;15.70;99.90;;;;;;5030123;28;20083;-76
2024/03/05 01:49:20;;;;;;;1.58;1.10;;;15.70;99.90;;;;;;5030325;28;20068;-74
2024/03/05 01:51:46;;;;;;;2.00;1.42;;;15.70;99.90;;;;;;5030468;28;20032;-75
2024/03/05 01:54:17;;;;;;;0.93;0.88;;;15.70;99.90;;;;;;5029784;28;20493;-75
2024/03/05 01:56:46;;;;;;;2.42;0.90;;;15.70;99.90;;;;;;5062173;28;20040;-75
2024/03/05 01:59:14;;;;;;;1.83;0.75;;;15.60;99.90;;;;;;5029575;28;20130;-74
2024/03/05 02:01:43;;;;;;;1.25;1.00;;;15.60;99.90;;;;;;5027972;28;20487;-75
2024/03/05 02:04:10;;;;;;;1.20;1.00;;;15.60;99.90;;;;;;5031472;28;20021;-77
2024/03/05 02:06:39;;;;;;;1.45;1.00;;;15.60;99.90;;;;;;5060103;28;20116;-75
2024/03/05 02:09:11;;;;;;;1.35;0.90;;;15.60;99.90;;;;;;5062133;28;20037;-75
2024/03/05 02:11:38;;;;;;;1.55;0.85;;;15.50;99.90;;;;;;5028772;28;20112;-74
2024/03/05 02:14:04;;;;;;;1.30;1.08;;;15.50;99.90;;;;;;5029914;28;20638;-76
2024/03/05 02:16:30;;;;;;;1.33;0.90;;;15.50;99.90;;;;;;5030085;28;20037;-76
2024/03/05 02:18:56;;;;;;;1.30;1.07;;;15.50;99.90;;;;;;5029716;28;20040;-75
2024/03/05 02:21:22;;;;;;;1.92;1.20;;;15.50;99.90;;;;;;5030398;28;20048;-76
2024/03/05 02:23:48;;;;;;;2.10;1.20;;;15.50;99.90;;;;;;5029635;28;20475;-76
2024/03/05 02:26:17;;;;;;;2.08;0.93;;;15.50;99.90;;;;;;5029605;28;20025;-77
2024/03/05 02:28:45;;;;;;;1.92;0.95;;;15.50;99.90;;;;;;5027566;28;20088;-76
2024/03/05 02:31:10;;;;;;;1.25;0.90;;;15.50;99.90;;;;;;5029518;28;20033;-75
2024/03/05 02:33:36;;;;;;;1.20;1.10;;;15.50;99.90;;;;;;5029253;28;20033;-75
2024/03/05 02:36:02;;;;;;;2.50;1.10;;;15.50;99.90;;;;;;5029413;28;20025;-75
2024/03/05 02:38:28;;;;;;;1.30;1.17;;;15.50;99.90;;;;;;5029322;28;20112;-75
2024/03/05 02:40:53;;;;;;;2.07;1.37;;;15.50;99.90;;;;;;5031024;28;20033;-75
2024/03/05 02:43:20;;;;;;;1.83;1.10;;;15.40;99.90;;;;;;5030868;28;20053;-74
2024/03/05 02:45:46;;;;;;;1.42;1.33;;;15.40;99.90;;;;;;5029474;28;20033;-75
2024/03/05 02:48:12;;;;;;;3.28;1.48;;;15.40;99.90;;;;;;5060227;28;20029;-77
2024/03/05 02:50:38;;;;;;;1.67;1.20;;;15.40;99.90;;;;;;5023807;28;20025;-75
2024/03/05 02:53:04;;;;;;;1.40;1.10;;;15.40;99.90;;;;;;5030973;28;20103;-75
2024/03/05 02:55:30;;;;;;;2.20;0.97;;;15.40;99.90;;;;;;5028488;28;20037;-76
2024/03/05 02:57:56;;;;;;;3.80;1.50;;;15.40;99.90;;;;;;5033726;28;20037;-75
2024/03/05 03:00:24;;;;;;;1.90;1.30;;;15.40;99.90;;;;;;5029438;28;20112;-75
2024/03/05 03:02:50;;;;;;;2.22;1.30;;;15.40;99.90;;;;;;5029735;28;20034;-74
2024/03/05 03:05:22;;;;;;;2.17;1.23;;;15.40;99.90;;;;;;5029709;28;20128;-74
2024/03/05 03:07:47;;;;;;;2.90;1.23;;;15.40;99.90;;;;;;5030052;28;20059;-74
2024/03/05 03:10:13;;;;;;;4.07;1.70;;;15.30;99.90;;;;;;5028235;28;20040;-75
2024/03/05 03:12:40;;;;;;;3.30;1.30;;;15.30;99.90;;;;;;5030126;28;20034;-75
2024/03/05 03:15:07;;;;;;;2.38;1.70;;;15.30;99.90;;;;;;5028925;28;20099;-75
2024/03/05 03:17:33;;;;;;;2.95;1.25;;;15.30;99.90;;;;;;5059310;28;20033;-77
2024/03/05 03:19:59;;;;;;;3.22;1.80;;;15.30;99.90;;;;;;5028215;28;20033;-75
2024/03/05 03:22:26;;;;;;;1.90;1.43;;;15.30;99.90;;;;;;5028431;28;20459;-76
2024/03/05 03:24:51;;;;;;;;;;;15.30;99.90;;;;;;5030430;28;20030;-75
2024/03/05 03:27:19;;;;;;;3.63;1.60;;;15.30;99.90;;;;;;5027916;28;19917;-75
2024/03/05 03:29:45;;;;;;;1.90;1.42;;;15.30;99.90;;;;;;5030211;28;20033;-75
2024/03/05 03:32:11;;;;;;;2.07;1.40;;;15.20;99.90;;;;;;5029582;28;20025;-76
2024/03/05 03:34:40;;;;;;;3.37;1.90;;;15.20;99.90;;;;;;5061184;28;20029;-75
2024/03/05 03:37:07;;;;;;;2.13;1.48;;;15.20;99.90;;;;;;5029250;28;20281;-75
2024/03/05 03:39:32;;;;;;;;;;;15.20;99.90;;;;;;5028706;28;20175;-75
2024/03/05 03:41:58;;;;;;;3.55;1.30;;;15.20;99.90;;;;;;5029340;28;20003;-76
2024/03/05 03:44:24;;;;;;;2.03;1.80;;;15.20;99.90;;;;;;5028385;28;20055;-76
2024/03/05 03:46:50;;;;;;;2.63;2.00;;;15.20;99.90;;;;;;5055736;28;20033;-75
2024/03/05 03:49:20;;;;;;;3.15;2.30;;;15.20;99.90;;;;;;5029096;28;20275;-75
2024/03/05 03:51:46;;;;;;;2.03;1.77;;;15.20;99.90;;;;;;5061571;28;20041;-75
2024/03/05 03:54:12;;;;;;;2.73;2.00;;;15.20;99.90;;;;;;5029054;28;20466;-75
2024/03/05 03:56:38;;;;;;;2.83;1.70;;;15.10;99.90;;;;;;5029283;28;20791;-77
2024/03/05 03:59:04;;;;;;;2.00;1.58;;;15.10;99.90;;;;;;5029142;28;20049;-77
2024/03/05 04:01:31;;;;;;;3.43;1.70;;;15.10;99.90;;;;;;5027859;28;20033;-75
2024/03/05 04:03:58;;;;;;;2.40;1.70;;;15.10;99.90;;;;;;5029129;28;20021;-77
2024/03/05 04:06:24;;;;;;;2.80;1.80;;;15.10;99.90;;;;;;5027300;28;20036;-77
2024/03/05 04:08:50;;;;;;;2.95;1.92;;;15.10;99.90;;;;;;5029126;28;20021;-77
2024/03/05 04:11:16;;;;;;;4.27;2.23;;;15.10;99.90;;;;;;5028291;28;20037;-75
2024/03/05 04:13:43;;;;;;;2.83;1.83;;;15.10;99.90;;;;;;5028853;28;20025;-77
2024/03/05 04:16:10;;;;;;;2.42;1.90;;;15.10;99.90;;;;;;5029646;28;20099;-75
2024/03/05 04:18:35;;;;;;;3.33;2.03;;;15.10;99.90;;;;;;5029277;28;20083;-76
2024/03/05 04:21:01;;;;;;;3.23;1.70;;;15.10;99.90;;;;;;5029109;28;20440;-75
2024/03/05 04:23:27;;;;;;;4.87;2.30;;;15.10;99.90;;;;;;5033251;28;20139;-76
2024/03/05 04:25:58;;;;;;;4.38;2.20;;;15.10;99.90;;;;;;5029790;28;20339;-75
2024/03/05 04:28:24;;;;;;;5.63;1.70;;;15.00;99.90;;;;;;5024703;28;20042;-75
2024/03/05 04:30:52;;;;;;;3.17;2.03;;;15.00;99.90;;;;;;5033192;28;20455;-75
2024/03/05 04:33:22;;;;;;;2.95;1.98;;;15.00;99.90;;;;;;5032920;28;20022;-76
2024/03/05 04:35:48;;;;;;;3.17;2.00;;;15.00;99.90;;;;;;5032763;28;20485;-74
2024/03/05 04:38:13;;;;;;;3.40;2.40;;;15.00;99.90;;;;;;5033284;28;20061;-76
2024/03/05 04:40:39;;;;;;;3.97;2.13;;;15.00;99.90;;;;;;5030980;28;20072;-75
2024/03/05 04:43:05;;;;;;;3.30;2.57;;;15.00;99.90;;;;;;5030790;28;20159;-75
2024/03/05 04:45:34;;;;;;;2.83;2.03;;;15.00;99.90;;;;;;5058149;28;20065;-74
2024/03/05 04:48:00;;;;;;;3.30;2.13;;;15.00;99.90;;;;;;5031301;28;20040;-74
2024/03/05 04:50:26;;;;;;;9.18;2.47;;;14.90;99.90;;;;;;5032844;28;20029;-74
2024/03/05 04:52:54;;;;;;;3.00;2.20;;;14.90;99.90;;;;;;5030462;28;20060;-75
2024/03/05 04:55:21;;;;;;;3.17;2.05;;;14.90;99.90;;;;;;5032889;28;20030;-75
2024/03/05 04:57:48;;;;;;;3.83;2.28;;;14.90;99.90;;;;;;5030895;28;20026;-76
2024/03/05 05:00:20;;;;;;;4.78;2.00;;;14.90;99.90;;;;;;5032701;28;20048;-75
2024/03/05 05:02:47;;;;;;;2.67;1.95;;;14.90;99.90;;;;;;5031087;28;20039;-75
2024/03/05 05:05:13;;;;;;;;;;;14.90;99.90;;;;;;5026643;28;20463;-75
2024/03/05 05:07:40;;;;;;;4.45;2.25;;;14.90;99.90;;;;;;5031089;28;19913;-76
2024/03/05 05:10:07;;;;;;;3.60;2.33;;;14.90;99.90;;;;;;5031318;28;20030;-75
2024/03/05 05:12:33;;;;;;;3.60;2.05;;;14.90;99.90;;;;;;5032661;28;20040;-76
2024/03/05 05:15:00;;;;;;;4.63;2.25;;;14.90;99.90;;;;;;5032169;28;20030;-74
2024/03/05 05:17:26;;;;;;;4.10;2.58;;;14.90;99.90;;;;;;5031053;28;20087;-75
2024/03/05 05:19:52;;;;;;;5.13;2.50;;;14.90;99.90;;;;;;5032056;28;20045;-76
2024/03/05 05:22:17;;;;;;;4.20;2.40;;;14.90;99.90;;;;;;5064040;28;20099;-75
2024/03/05 05:24:43;;;;;;;5.53;2.47;;;14.90;99.90;;;;;;5060359;28;20037;-76
2024/03/05 05:27:09;;;;;;;4.50;2.40;;;14.90;99.90;;;;;;5063745;28;20033;-75
2024/03/05 05:29:36;;;;;;;4.47;2.50;;;14.90;99.90;;;;;;5030828;28;20124;-75
2024/03/05 05:32:03;;;;;;;4.63;2.42;;;14.90;99.90;;;;;;5030268;28;20093;-77
2024/03/05 05:34:28;;;;;;;;;;;14.80;99.90;;;;;;5031666;28;20033;-74
2024/03/05 05:36:54;;;;;;;5.80;2.63;;;14.80;99.90;;;;;;5030072;28;19920;-74
2024/03/05 05:39:24;;;;;;;3.27;2.40;;;14.80;99.90;;;;;;5030378;28;20091;-75
2024/03/05 05:41:51;;;;;;;4.47;2.80;;;14.80;99.90;;;;;;5032224;28;20025;-75
2024/03/05 05:44:18;;;;;;;4.10;2.65;;;14.80;99.90;;;;;;5031868;28;20022;-75
2024/03/05 05:46:45;;;;;;;5.63;2.90;;;14.80;99.90;;;;;;5027437;28;20116;-75
2024/03/05 05:49:13;;;;;;;3.90;2.67;;;14.80;99.90;;;;;;5029777;28;20049;-75
2024/03/05 05:51:40;;;;;;;3.75;2.42;;;14.80;99.90;;;;;;5031660;28;20037;-75
2024/03/05 05:54:10;;;;;;;4.20;2.75;;;14.80;99.90;;;;;;5028793;28;20025;-76
2024/03/05 05:56:37;;;;;;;5.45;2.83;;;14.80;99.90;;;;;;5030275;28;20692;-75
2024/03/05 05:59:08;;;;;;;;;;;14.80;99.90;;;;;;5031969;28;20049;-76
2024/03/05 06:01:34;;;;;;;5.07;3.42;;;14.80;99.90;;;;;;5030663;28;19919;-74
2024/03/05 06:04:01;;;;;;;3.95;2.65;;;14.80;99.90;;;;;;5049787;28;20034;-75
2024/03/05 06:06:27;;;;;;;4.13;2.92;;;14.80;99.90;;;;;;5030728;28;20483;-75
2024/03/05 06:08:52;;;;;;;3.47;2.60;;;14.80;99.90;;;;;;5030870;28;20076;-75
2024/03/05 06:11:18;;;;;;;3.77;2.67;;;14.80;99.90;;;;;;5028372;28;20033;-76
2024/03/05 06:13:45;;;;;;;5.43;3.10;;;14.80;99.90;;;;;;5051514;28;20034;-74
2024/03/05 06:16:10;;;;;;;4.28;2.47;;;14.80;99.90;;;;;;5027203;28;20040;-75
2024/03/05 06:18:36;;;;;;;11.37;3.37;;;14.80;99.90;;;;;;5031148;28;20041;-74
2024/03/05 06:21:05;;;;;;;19.02;6.32;;;14.80;99.90;;;;;;5030943;28;20108;-75
2024/03/05 06:23:31;;;;;;;125.25;111.75;;;14.80;99.90;;;;;;5029120;28;20045;-76
2024/03/05 06:25:57;;;;;;;44.27;34.73;;;14.80;99.90;;;;;;5029467;28;20441;-76
2024/03/05 06:28:22;;;;;;;43.37;36.87;;;14.80;99.90;;;;;;5029433;28;20285;-75
2024/03/05 06:30:49;;;;;;;53.50;48.07;;;14.80;99.90;;;;;;5062561;28;20648;-76
2024/03/05 06:33:17;;;;;;;50.95;45.42;;;14.80;99.90;;;;;;5059835;28;20026;-76
2024/03/05 06:35:43;;;;;;;36.25;32.33;;;14.80;99.90;;;;;;5030783;28;20022;-75
2024/03/05 06:38:09;;;;;;;40.20;31.65;;;14.90;99.90;;;;;;5031127;28;20095;-76
2024/03/05 06:40:38;;;;;;;34.40;30.77;;;14.90;99.90;;;;;;5029866;28;20466;-75
2024/03/05 06:43:05;;;;;;;31.33;28.02;;;14.90;99.90;;;;;;5029590;28;20079;-75
2024/03/05 06:45:34;;;;;;;;;;;14.90;99.90;;;;;;5028302;28;20068;-75
2024/03/05 06:48:01;;;;;;;204.05;112.82;;;14.90;99.90;;;;;;5029062;28;19956;-75
2024/03/05 06:50:34;;;;;;;132.38;78.40;;;14.90;99.90;;;;;;5030650;28;20025;-77
2024/03/05 06:58:44;;;;;;;88.93;53.40;;;14.90;99.90;;;;;;5029745;28;20417;-76
2024/03/05 07:01:11;;;;;;;79.68;48.75;;;14.90;99.90;;;;;;5029067;28;20044;-75
2024/03/05 07:03:38;;;;;;;71.75;44.65;;;14.90;99.90;;;;;;5025461;28;20479;-76
2024/03/05 07:06:09;;;;;;;59.53;38.97;;;14.90;99.90;;;;;;5028133;28;20029;-75
2024/03/05 07:08:39;;;;;;;54.53;34.83;;;14.90;99.90;;;;;;5030147;28;20160;-74
2024/03/05 07:11:09;;;;;;;54.28;34.80;;;14.90;99.90;;;;;;5026987;28;20029;-75
2024/03/05 07:13:40;;;;;;;52.10;33.97;;;14.90;99.90;;;;;;5028601;28;20037;-74
2024/03/05 07:16:07;;;;;;;55.60;34.80;;;14.90;99.90;;;;;;5024448;28;20029;-75
2024/03/05 07:18:35;;;;;;;51.95;33.78;;;14.90;99.90;;;;;;5027042;28;20033;-75
2024/03/05 07:21:02;;;;;;;47.15;32.70;;;14.90;99.90;;;;;;5060347;28;20064;-74
2024/03/05 07:23:30;;;;;;;54.03;33.15;;;14.90;99.90;;;;;;5028642;28;20036;-74
2024/03/05 07:25:56;;;;;;;65.85;42.00;;;14.90;99.90;;;;;;5029732;28;20044;-75
2024/03/05 07:28:22;;;;;;;56.25;34.65;;;15.00;99.90;;;;;;5024500;28;20437;-75
2024/03/05 07:30:48;;;;;;;51.25;34.05;;;15.00;99.90;;;;;;5027967;28;20037;-76
2024/03/05 07:33:14;;;;;;;52.50;33.53;;;15.00;99.90;;;;;;5026568;28;20039;-74
2024/03/05 07:35:40;;;;;;;50.53;34.37;;;15.00;99.90;;;;;;5029245;28;20029;-74
2024/03/05 07:38:09;;;;;;;52.53;33.00;;;15.10;99.90;;;;;;5026660;28;20751;-77
2024/03/05 07:40:35;;;;;;;49.88;32.50;;;15.10;99.90;;;;;;5025041;28;20033;-76
2024/03/05 07:43:04;;;;;;;50.07;31.77;;;15.10;99.90;;;;;;5029215;28;20041;-75
2024/03/05 07:45:31;;;;;;;51.70;31.08;;;15.10;99.90;;;;;;5030290;28;20148;-76
2024/03/05 07:47:57;;;;;;;56.00;35.00;;;15.10;99.90;;;;;;5028440;28;20033;-75
2024/03/05 07:50:23;;;;;;;50.20;30.75;;;15.10;99.90;;;;;;5025613;28;20049;-75
2024/03/05 07:52:53;;;;;;;47.85;31.30;;;15.20;99.90;;;;;;5027800;28;20087;-74
2024/03/05 07:55:21;;;;;;;48.00;30.92;;;15.20;99.90;;;;;;5024635;28;20032;-75
2024/03/05 07:57:52;;;;;;;45.25;29.92;;;15.20;99.90;;;;;;5025591;28;20036;-75
2024/03/05 08:00:22;;;;;;;53.15;29.85;;;15.20;99.90;;;;;;5018723;28;20029;-77
2024/03/05 08:02:55;;;;;;;42.55;27.00;;;15.20;99.90;;;;;;5024993;28;20049;-76
2024/03/05 08:05:22;;;;;;;42.80;27.67;;;15.30;99.90;;;;;;5026538;28;20106;-74
2024/03/05 08:07:49;;;;;;;42.70;26.50;;;15.30;99.90;;;;;;5030493;28;20040;-74
2024/03/05 08:10:16;;;;;;;39.88;25.23;;;15.30;99.90;;;;;;5023472;28;20029;-76
2024/03/05 08:12:44;;;;;;;40.45;25.42;;;15.40;99.90;;;;;;5059342;28;20084;-74
2024/03/05 08:15:12;;;;;;;38.45;24.33;;;15.40;99.90;;;;;;5019962;28;20025;-75
2024/03/05 08:17:45;;;;;;;37.50;24.00;;;15.30;99.90;;;;;;5028228;28;20471;-75
2024/03/05 08:20:21;;;;;;;36.75;22.48;;;15.30;99.90;;;;;;5029032;28;20045;-76
2024/03/05 08:22:47;;;;;;;93.18;53.72;;;15.40;99.90;;;;;;5029019;28;20128;-75
2024/03/05 08:25:15;;;;;;;57.17;34.05;;;15.40;99.90;;;;;;5027460;28;20060;-75
2024/03/05 08:27:42;;;;;;;60.60;34.40;;;15.40;99.90;;;;;;5027248;28;20044;-74
2024/03/05 08:30:15;;;;;;;;;;;15.40;99.90;;;;;;5032919;28;20109;-76
2024/03/05 08:32:41;;;;;;;54.65;31.55;;;15.40;99.90;;;;;;5018258;28;19913;-75
2024/03/05 08:35:09;;;;;;;51.65;30.55;;;15.50;99.90;;;;;;5030028;28;20409;-76
2024/03/05 08:37:35;;;;;;;51.70;31.58;;;15.50;99.90;;;;;;5024913;28;20030;-75
2024/03/05 08:40:04;;;;;;;47.67;29.20;;;15.50;99.90;;;;;;5020268;28;20061;-74
2024/03/05 08:42:29;;;;;;;50.92;29.08;;;15.50;99.90;;;;;;5032263;28;20554;-74
2024/03/05 08:44:55;;;;;;;46.87;26.67;;;15.50;99.90;;;;;;5058636;28;20120;-76
2024/03/05 08:47:21;;;;;;;46.47;27.77;;;15.50;99.90;;;;;;5020840;28;20041;-74
2024/03/05 08:49:50;;;;;;;114.25;50.25;;;15.60;99.90;;;;;;5027775;28;20036;-75
2024/03/05 08:52:17;;;;;;;136.73;64.85;;;15.60;99.90;;;;;;5026409;28;20486;-75
2024/03/05 08:54:43;;;;;;;;;;;15.60;99.90;;;;;;5057353;28;20536;-75
2024/03/05 08:57:09;;;;;;;73.97;38.20;;;15.60;99.90;;;;;;5028674;28;19912;-76
2024/03/05 08:59:35;;;;;;;60.72;33.92;;;15.70;99.90;;;;;;5025605;28;20049;-74
2024/03/05 09:02:01;;;;;;;58.87;31.03;;;15.70;99.90;;;;;;5026974;28;20033;-76
2024/03/05 09:04:27;;;;;;;63.60;31.63;;;15.70;99.90;;;;;;5027928;28;20036;-78
2024/03/05 09:06:53;;;;;;;61.70;31.23;;;15.70;99.90;;;;;;5027251;28;20022;-75
2024/03/05 09:09:18;;;;;;;57.93;29.43;;;15.70;99.90;;;;;;5032136;28;20357;-76
2024/03/05 09:11:46;;;;;;;87.63;51.10;;;15.70;99.90;;;;;;5031879;28;20036;-74
2024/03/05 09:14:12;;;;;;;60.40;31.70;;;15.80;99.90;;;;;;5031205;28;20163;-75
2024/03/05 09:16:38;;;;;;;58.37;30.23;;;15.80;99.90;;;;;;5030563;28;20116;-75
2024/03/05 09:19:05;;;;;;;67.30;30.42;;;15.80;99.90;;;;;;5030451;28;20045;-74
2024/03/05 09:21:35;;;;;;;55.60;30.58;;;15.90;99.90;;;;;;5030932;28;20034;-76
2024/03/05 09:24:01;;;;;;;51.33;27.00;;;15.90;99.90;;;;;;5022872;28;20041;-75
2024/03/05 09:26:29;;;;;;;54.25;26.60;;;15.90;99.90;;;;;;5031694;28;20356;-74
2024/03/05 09:28:55;;;;;;;52.17;25.27;;;15.90;99.90;;;;;;5032115;28;20034;-74
2024/03/05 09:31:21;;;;;;;60.58;28.00;;;16.00;99.90;;;;;;5032350;28;20585;-76
2024/03/05 09:33:47;;;;;;;64.03;33.27;;;16.00;99.90;;;;;;5032200;28;20040;-76
2024/03/05 09:36:13;;;;;;;50.03;26.53;;;16.10;99.90;;;;;;5032564;28;20032;-76
2024/03/05 09:38:38;;;;;;;54.45;26.60;;;16.10;99.90;;;;;;5030231;28;20418;-76
2024/03/05 09:41:05;;;;;;;48.47;25.60;;;16.10;99.90;;;;;;5030718;28;20041;-75
2024/03/05 09:43:31;;;;;;;46.55;24.23;;;16.10;99.90;;;;;;5029343;28;20394;-76
2024/03/05 09:46:05;;;;;;;43.28;25.45;;;16.20;99.90;;;;;;5022183;28;20056;-74
2024/03/05 09:48:33;;;;;;;44.38;23.00;;;16.20;99.90;;;;;;5033777;28;20482;-75
2024/03/05 09:50:59;;;;;;;45.38;25.33;;;16.20;99.90;;;;;;5029745;28;20127;-74
2024/03/05 09:53:26;;;;;;;44.88;23.88;;;16.30;99.90;;;;;;5030812;28;20050;-74
2024/03/05 09:55:53;;;;;;;43.30;23.17;;;16.30;99.90;;;;;;5024104;28;20033;-74
2024/03/05 09:58:26;;;;;;;46.05;23.95;;;16.40;99.90;;;;;;5034111;28;20041;-74
2024/03/05 10:00:54;;;;;;;76.25;41.22;;;16.40;99.90;;;;;;5030984;28;20509;-77
2024/03/05 10:03:20;;;;;;;43.25;24.10;;;16.40;99.90;;;;;;5034407;28;20025;-76
2024/03/05 10:05:45;;;;;;;45.28;25.05;;;16.40;99.90;;;;;;5023216;28;20041;-76
2024/03/05 10:08:11;;;;;;;47.73;25.67;;;16.50;99.90;;;;;;5029653;28;20406;-76
2024/03/05 10:10:37;;;;;;;40.33;22.77;;;16.50;99.90;;;;;;5035313;28;20114;-75
2024/03/05 10:13:03;;;;;;;46.97;24.63;;;16.50;99.90;;;;;;5029759;28;20029;-76
2024/03/05 10:15:29;;;;;;;42.07;23.03;;;16.60;99.90;;;;;;5031927;28;20045;-75
2024/03/05 10:17:55;;;;;;;46.47;22.40;;;16.60;99.90;;;;;;5026131;28;20620;-75
2024/03/05 10:20:27;;;;;;;45.28;21.70;;;16.70;99.90;;;;;;5030147;28;20037;-77
2024/03/05 10:22:54;;;;;;;37.33;21.75;;;16.70;99.90;;;;;;5036278;28;20121;-75
2024/03/05 10:25:22;;;;;;;46.58;22.25;;;16.70;99.90;;;;;;5032640;28;20461;-77
2024/03/05 10:27:53;;;;;;;39.35;21.15;;;16.80;99.90;;;;;;5022732;28;20502;-74
2024/03/05 10:30:33;;;;;;;39.38;21.38;;;16.80;99.90;;;;;;5034709;28;20037;-75
2024/03/05 10:33:01;;;;;;;36.60;19.92;;;16.80;99.90;;;;;;5030404;28;20120;-74
2024/03/05 10:35:29;;;;;;;38.05;20.42;;;16.90;99.90;;;;;;5031003;28;20048;-76
2024/03/05 10:37:59;;;;;;;38.13;20.50;;;16.90;99.90;;;;;;5030395;28;20049;-76
2024/03/05 10:40:26;;;;;;;35.42;20.73;;;16.80;99.90;;;;;;5030453;28;20026;-75
2024/03/05 10:42:52;;;;;;;38.63;20.70;;;16.90;99.90;;;;;;5038019;28;20025;-75
2024/03/05 10:45:23;;;;;;;35.03;19.80;;;16.90;99.90;;;;;;5024633;28;20038;-75
2024/03/05 10:47:50;;;;;;;35.13;19.75;;;16.90;99.90;;;;;;5033814;28;20726;-75
2024/03/05 10:50:18;;;;;;;36.13;19.35;;;16.90;99.90;;;;;;5030539;28;20044;-76
2024/03/05 10:52:45;;;;;;;31.52;18.17;;;16.90;99.90;;;;;;5027753;28;20038;-75
2024/03/05 10:55:12;;;;;;;35.88;19.15;;;16.90;99.90;;;;;;5025611;28;20033;-74
2024/03/05 10:58:13;;;;;;;33.65;19.23;;;16.90;99.90;;;;;;5026276;28;20033;-75
2024/03/05 11:00:27;;;;;;;34.30;18.70;;;17.00;99.90;;;;;;5029604;28;20168;-75
2024/03/05 11:03:03;;;;;;;34.63;19.13;;;17.00;99.90;;;;;;5024074;28;20112;-76
2024/03/05 11:05:33;;;;;;;34.67;18.67;;;17.00;99.90;;;;;;5023969;28;20307;-78
2024/03/05 11:08:00;;;;;;;30.45;18.33;;;17.00;99.90;;;;;;5033703;28;20671;-77
2024/03/05 11:10:28;;;;;;;30.52;18.00;;;17.00;99.90;;;;;;5035670;28;20108;-74
2024/03/05 11:12:54;;;;;;;29.50;17.00;;;17.00;99.90;;;;;;5029936;28;20039;-75
2024/03/05 11:15:21;;;;;;;32.10;16.43;;;17.00;99.90;;;;;;5027625;28;20030;-76
2024/03/05 11:17:47;;;;;;;29.17;17.30;;;17.00;99.90;;;;;;5027817;28;20041;-76
2024/03/05 11:20:40;;;;;;;34.42;16.83;;;17.10;99.90;;;;;;5026397;28;20487;-76
2024/03/05 11:23:07;;;;;;;33.25;17.38;;;17.10;99.90;;;;;;5023295;28;20034;-76
2024/03/05 11:25:33;;;;;;;;;;;17.10;99.90;;;;;;5030946;28;20025;-75
2024/03/05 11:27:59;;;;;;;28.52;16.65;;;17.10;99.90;;;;;;5030011;28;19963;-75
2024/03/05 11:30:30;;;;;;;26.97;14.60;;;17.10;99.90;;;;;;5027207;28;20044;-76
2024/03/05 11:32:56;;;;;;;28.27;16.13;;;17.10;99.90;;;;;;5035469;28;20571;-75
2024/03/05 11:35:24;;;;;;;31.30;16.60;;;17.10;99.90;;;;;;5026326;28;20034;-77
2024/03/05 11:37:51;;;;;;;28.30;15.00;;;17.10;99.90;;;;;;5026954;28;20033;-76
2024/03/05 11:40:21;;;;;;;30.25;14.73;;;17.10;99.90;;;;;;5027522;28;20041;-74
2024/03/05 11:42:47;;;;;;;29.50;16.38;;;17.20;99.90;;;;;;5039089;28;20029;-75
2024/03/05 11:45:46;;;;;;;25.90;14.52;;;17.20;99.90;;;;;;5030884;28;20433;-74
2024/03/05 11:48:20;;;;;;;26.30;14.77;;;17.20;99.90;;;;;;5038542;28;20038;-74
2024/03/05 11:50:47;;;;;;;27.02;14.80;;;17.20;99.90;;;;;;5027101;28;20112;-75
2024/03/05 11:53:13;;;;;;;24.52;14.45;;;17.20;99.90;;;;;;5025629;28;20126;-75
2024/03/05 11:55:39;;;;;;;29.37;15.43;;;17.20;99.90;;;;;;5024304;28;20057;-76
2024/03/05 11:58:09;;;;;;;27.58;14.75;;;17.20;99.90;;;;;;5029173;28;20037;-75
2024/03/05 12:00:35;;;;;;;25.83;13.90;;;17.20;99.90;;;;;;5060212;28;20037;-75
2024/03/05 12:03:02;;;;;;;23.70;13.30;;;17.20;99.90;;;;;;5030029;28;20402;-74
2024/03/05 12:05:30;;;;;;;26.75;14.98;;;17.20;99.90;;;;;;5025270;28;20037;-76
2024/03/05 12:08:07;;;;;;;39.97;20.88;;;17.20;99.90;;;;;;5021226;28;20034;-77
2024/03/05 12:10:35;;;;;;;37.17;20.50;;;17.20;99.90;;;;;;5025463;28;20403;-76
2024/03/05 12:13:02;;;;;;;31.02;17.25;;;17.20;99.90;;;;;;5027462;28;20068;-77
2024/03/05 12:15:35;;;;;;;35.28;19.17;;;17.20;99.90;;;;;;5020974;28;20164;-74
2024/03/05 12:18:11;;;;;;;33.42;17.92;;;17.20;99.90;;;;;;5027486;28;20045;-77
2024/03/05 12:20:42;;;;;;;27.33;15.90;;;17.20;99.90;;;;;;5022440;28;20072;-74
2024/03/05 12:23:07;;;;;;;28.40;16.55;;;17.30;99.90;;;;;;5020706;28;20532;-77
2024/03/05 12:25:34;;;;;;;34.37;18.03;;;17.30;99.90;;;;;;5020799;28;20038;-76
2024/03/05 12:28:00;;;;;;;44.60;26.20;;;17.20;99.90;;;;;;5055544;28;20025;-76
2024/03/05 12:30:35;;;;;;;35.08;19.00;;;17.20;99.90;;;;;;5058934;28;20065;-76
2024/03/05 12:33:01;;;;;;;38.95;19.23;;;17.20;99.90;;;;;;5023030;28;20060;-77
2024/03/05 12:35:30;;;;;;;31.33;18.60;;;17.20;99.90;;;;;;5029035;28;20035;-75
2024/03/05 12:38:01;;;;;;;30.15;18.25;;;17.20;99.90;;;;;;5020293;28;20132;-76
2024/03/05 12:40:30;;;;;;;31.08;18.75;;;17.30;99.90;;;;;;5029324;28;20029;-76
2024/03/05 12:43:08;;;;;;;32.63;17.50;;;17.30;99.90;;;;;;5023163;28;20022;-76
2024/03/05 12:45:34;;;;;;;30.75;17.13;;;17.30;99.90;;;;;;5031398;28;20034;-75